Time;durP1;ratioP1;P1;durP2;ratioP2;P2;SDS_P1;SDS_P2;PMS_P1;PMS_P2;Temp;Humidity;BMP_temperature;BMP_pressure;BME280_temperature;BME280_humidity;BME280_pressure;Samples;Min_cycle;Max_cycle;Signal;HPM_P1;HPM_P2
2022/05/10 00:01:57;;;;;;;21.65;2.63;;;;;;;;;;5027280;28;20033;-56
2022/05/10 00:04:23;;;;;;;20.48;2.90;;;;;;;;;;5023728;28;20411;-55
2022/05/10 00:06:50;;;;;;;16.80;2.50;;;;;;;;;;5025061;28;20033;-56
2022/05/10 00:09:19;;;;;;;28.55;3.05;;;;;;;;;;5020414;28;20026;-56
2022/05/10 00:11:45;;;;;;;20.35;3.30;;;;;;;;;;5018820;28;20034;-56
2022/05/10 00:14:10;;;;;;;16.40;2.70;;;;;;;;;;5026449;28;20013;-57
2022/05/10 00:16:39;;;;;;;21.65;2.42;;;;;;;;;;5025791;28;20507;-57
2022/05/10 00:19:05;;;;;;;16.88;2.58;;;;;;;;;;5018994;28;20025;-57
2022/05/10 00:21:31;;;;;;;23.17;2.47;;;;;;;;;;5021782;28;20056;-57
2022/05/10 00:23:57;;;;;;;14.85;2.05;;;;;;;;;;5020053;28;20075;-56
2022/05/10 00:26:22;;;;;;;20.00;1.90;;;;;;;;;;5021654;28;20400;-56
2022/05/10 00:28:48;;;;;;;24.90;2.58;;;;;;;;;;5030044;28;20029;-55
2022/05/10 00:31:16;;;;;;;20.10;2.90;;;;;;;;;;5023998;28;20059;-56
2022/05/10 00:33:41;;;;;;;21.00;2.60;;;;;;;;;;5025451;28;20122;-56
2022/05/10 00:36:11;;;;;;;22.50;2.20;;;;;;;;;;5020809;28;20120;-56
2022/05/10 00:38:39;;;;;;;20.25;2.78;;;;;;;;;;5020372;28;20029;-56
2022/05/10 00:41:31;;;;;;;20.92;2.70;;;;;;;;;;5026786;28;20040;-56
2022/05/10 00:44:14;;;;;;;18.70;3.35;;;;;;;;;;5014990;28;20129;-56
2022/05/10 00:46:45;;;;;;;20.70;2.35;;;;;;;;;;5019259;28;20049;-56
2022/05/10 00:49:24;;;;;;;19.52;2.28;;;;;;;;;;5024988;28;20113;-56
2022/05/10 00:52:08;;;;;;;20.58;2.92;;;;;;;;;;5023005;28;20033;-56
2022/05/10 00:54:49;;;;;;;12.65;1.90;;;;;;;;;;5027299;28;20522;-56
2022/05/10 00:57:32;;;;;;;21.37;3.00;;;;;;;;;;5029274;28;20151;-57
2022/05/10 01:00:06;;;;;;;23.00;2.00;;;;;;;;;;5016810;28;20098;-56
2022/05/10 01:02:48;;;;;;;6.22;2.00;;;;;;;;;;5016816;28;20033;-56
2022/05/10 01:05:30;;;;;;;21.00;3.08;;;;;;;;;;5021328;28;20033;-56
2022/05/10 01:08:06;;;;;;;15.88;2.15;;;;;;;;;;5022553;28;20030;-55
2022/05/10 01:11:10;;;;;;;15.77;1.80;;;;;;;;;;5021169;28;20052;-56
2022/05/10 01:13:51;;;;;;;17.63;2.45;;;;;;;;;;5021940;28;20061;-56
2022/05/10 01:16:20;;;;;;;17.00;3.17;;;;;;;;;;5022535;28;20030;-56
2022/05/10 01:18:47;;;;;;;22.65;2.50;;;;;;;;;;5022843;28;20034;-57
2022/05/10 01:21:18;;;;;;;10.93;2.40;;;;;;;;;;5017619;28;20954;-57
2022/05/10 01:23:48;;;;;;;24.07;2.97;;;;;;;;;;5019574;28;20078;-57
2022/05/10 01:26:44;;;;;;;12.13;2.25;;;;;;;;;;5020739;28;20085;-56
2022/05/10 01:29:25;;;;;;;21.42;2.50;;;;;;;;;;5019642;28;20025;-57
2022/05/10 01:34:40;;;;;;;9.48;2.35;;;;;;;;;;5019195;28;20040;-57
2022/05/10 01:37:14;;;;;;;17.80;2.25;;;;;;;;;;5019876;28;20419;-56
2022/05/10 01:39:46;;;;;;;25.52;3.05;;;;;;;;;;5017269;28;20143;-57
2022/05/10 01:42:17;;;;;;;;;;;;;;;;;;5023262;28;20022;-56
2022/05/10 01:44:49;;;;;;;16.33;1.65;;;;;;;;;;5020013;28;19929;-56
2022/05/10 01:47:14;;;;;;;16.92;2.22;;;;;;;;;;5025877;28;20072;-56
2022/05/10 01:49:52;;;;;;;18.35;2.03;;;;;;;;;;5017766;28;20033;-57
2022/05/10 01:52:42;;;;;;;14.95;2.00;;;;;;;;;;5018224;28;20048;-56
2022/05/10 01:55:29;;;;;;;19.73;2.00;;;;;;;;;;5015717;28;20036;-56
2022/05/10 01:58:00;;;;;;;21.85;2.53;;;;;;;;;;5021427;28;20037;-57
2022/05/10 02:00:27;;;;;;;19.00;2.50;;;;;;;;;;5019181;28;20034;-57
2022/05/10 02:03:08;;;;;;;13.63;1.65;;;;;;;;;;5023662;28;20143;-57
2022/05/10 02:05:51;;;;;;;17.50;2.80;;;;;;;;;;5023205;28;20116;-57
2022/05/10 02:09:06;;;;;;;24.05;3.65;;;;;;;;;;5017723;28;20523;-55
2022/05/10 02:11:37;;;;;;;18.42;2.38;;;;;;;;;;5008528;28;20103;-57
2022/05/10 02:14:08;;;;;;;25.42;2.53;;;;;;;;;;5024737;28;20116;-57
2022/05/10 02:16:51;;;;;;;21.83;2.50;;;;;;;;;;5022893;28;20474;-57
2022/05/10 02:19:20;;;;;;;;;;;;;;;;;;5019464;28;20033;-57
2022/05/10 02:21:59;;;;;;;16.45;2.58;;;;;;;;;;5017404;28;20379;-57
2022/05/10 02:24:41;;;;;;;13.88;1.80;;;;;;;;;;5014976;28;20049;-57
2022/05/10 02:27:13;;;;;;;17.92;2.25;;;;;;;;;;5020835;28;20026;-57
2022/05/10 02:29:47;;;;;;;;;;;;;;;;;;5016359;28;20038;-56
2022/05/10 02:35:13;;;;;;;25.67;2.83;;;;;;;;;;5021171;28;20075;-57
2022/05/10 02:37:40;;;;;;;15.52;1.70;;;;;;;;;;5023667;28;20061;-57
2022/05/10 02:40:07;;;;;;;25.08;2.38;;;;;;;;;;5020002;28;20029;-56
2022/05/10 02:42:33;;;;;;;15.90;1.67;;;;;;;;;;5019675;28;20029;-57
2022/05/10 02:45:00;;;;;;;19.05;1.83;;;;;;;;;;5020412;28;20025;-56
2022/05/10 02:47:33;;;;;;;24.65;2.00;;;;;;;;;;5019084;28;20334;-56
2022/05/10 02:49:59;;;;;;;18.42;3.13;;;;;;;;;;5018040;28;20033;-56
2022/05/10 02:52:25;;;;;;;22.52;2.72;;;;;;;;;;5022876;28;20601;-56
2022/05/10 02:55:58;;;;;;;20.60;1.98;;;;;;;;;;5018423;28;20047;-56
2022/05/10 02:58:30;;;;;;;14.02;1.75;;;;;;;;;;4967829;28;20121;-56
2022/05/10 03:01:11;;;;;;;23.33;1.92;;;;;;;;;;4974149;28;20073;-56
2022/05/10 03:03:37;;;;;;;20.07;1.90;;;;;;;;;;5002111;28;20038;-56
2022/05/10 03:06:03;;;;;;;18.67;2.63;;;;;;;;;;5019258;28;20057;-57
2022/05/10 03:08:29;;;;;;;12.95;2.13;;;;;;;;;;5020780;28;20091;-57
2022/05/10 03:10:55;;;;;;;21.63;2.22;;;;;;;;;;5020115;28;20331;-56
2022/05/10 03:13:20;;;;;;;17.40;2.20;;;;;;;;;;5019522;28;20254;-56
2022/05/10 03:15:46;;;;;;;19.92;2.15;;;;;;;;;;5021698;28;20037;-56
2022/05/10 03:18:11;;;;;;;16.17;2.72;;;;;;;;;;5020520;28;20061;-57
2022/05/10 03:20:37;;;;;;;19.45;2.20;;;;;;;;;;5017090;28;20033;-56
2022/05/10 03:23:03;;;;;;;18.40;2.03;;;;;;;;;;5018738;28;20021;-56
2022/05/10 03:25:31;;;;;;;26.13;3.28;;;;;;;;;;5024052;28;20437;-56
2022/05/10 03:27:59;;;;;;;27.42;3.55;;;;;;;;;;5021735;28;20057;-56
2022/05/10 03:30:29;;;;;;;15.05;1.92;;;;;;;;;;5020285;28;20621;-56
2022/05/10 03:32:55;;;;;;;19.45;2.38;;;;;;;;;;5022094;28;20037;-56
2022/05/10 03:35:21;;;;;;;19.25;2.25;;;;;;;;;;5017476;28;20036;-56
2022/05/10 03:37:47;;;;;;;21.38;2.78;;;;;;;;;;5021058;28;20033;-56
2022/05/10 03:40:13;;;;;;;14.52;2.00;;;;;;;;;;5025767;28;20021;-56
2022/05/10 03:42:51;;;;;;;21.17;2.95;;;;;;;;;;5031858;28;20035;-56
2022/05/10 03:45:18;;;;;;;17.15;2.10;;;;;;;;;;5026117;28;20037;-56
2022/05/10 03:47:45;;;;;;;16.05;2.20;;;;;;;;;;5025858;28;20424;-56
2022/05/10 03:50:13;;;;;;;15.73;2.00;;;;;;;;;;5019435;28;20030;-55
2022/05/10 03:52:40;;;;;;;11.13;1.65;;;;;;;;;;5023745;28;20042;-56
2022/05/10 03:55:08;;;;;;;28.85;2.25;;;;;;;;;;5020921;28;20079;-56
2022/05/10 03:57:34;;;;;;;19.08;2.30;;;;;;;;;;5023649;28;20116;-56
2022/05/10 04:00:00;;;;;;;30.42;2.17;;;;;;;;;;5024362;28;20021;-57
2022/05/10 04:02:26;;;;;;;23.95;1.75;;;;;;;;;;5023586;28;20099;-56
2022/05/10 04:04:51;;;;;;;19.55;3.03;;;;;;;;;;5023230;28;20501;-56
2022/05/10 04:07:17;;;;;;;25.27;3.05;;;;;;;;;;5019713;28;20083;-56
2022/05/10 04:09:42;;;;;;;16.70;2.60;;;;;;;;;;5017968;28;20030;-56
2022/05/10 04:12:08;;;;;;;24.45;2.75;;;;;;;;;;5015931;28;20171;-56
2022/05/10 04:14:34;;;;;;;18.38;2.25;;;;;;;;;;5028703;28;20025;-56
2022/05/10 04:16:59;;;;;;;18.45;3.30;;;;;;;;;;5021992;28;20102;-56
2022/05/10 04:19:25;;;;;;;11.35;2.35;;;;;;;;;;5018531;28;20048;-56
2022/05/10 04:21:50;;;;;;;16.23;3.55;;;;;;;;;;5016636;28;20037;-56
2022/05/10 04:24:17;;;;;;;20.52;2.35;;;;;;;;;;5016611;28;20392;-56
2022/05/10 04:26:43;;;;;;;14.85;2.22;;;;;;;;;;5017574;28;20071;-57
2022/05/10 04:29:09;;;;;;;22.90;2.70;;;;;;;;;;5016974;28;20132;-56
2022/05/10 04:31:34;;;;;;;21.08;2.78;;;;;;;;;;5018055;28;20124;-56
2022/05/10 04:34:00;;;;;;;25.58;2.75;;;;;;;;;;5016800;28;20044;-56
2022/05/10 04:36:26;;;;;;;24.25;2.50;;;;;;;;;;5020409;28;20013;-57
2022/05/10 04:38:52;;;;;;;25.52;2.90;;;;;;;;;;5022444;28;20468;-57
2022/05/10 04:41:29;;;;;;;18.08;1.98;;;;;;;;;;5020039;28;20033;-56
2022/05/10 04:44:01;;;;;;;19.63;2.42;;;;;;;;;;5023324;28;20124;-57
2022/05/10 04:46:30;;;;;;;10.43;1.98;;;;;;;;;;5017220;28;20050;-56
2022/05/10 04:48:56;;;;;;;17.35;1.88;;;;;;;;;;5018974;28;20042;-56
2022/05/10 04:51:21;;;;;;;14.98;1.95;;;;;;;;;;5022453;28;20044;-56
2022/05/10 04:53:47;;;;;;;21.38;1.95;;;;;;;;;;5021473;28;20554;-56
2022/05/10 04:56:13;;;;;;;18.70;2.25;;;;;;;;;;5016206;28;20084;-56
2022/05/10 04:58:38;;;;;;;17.98;1.92;;;;;;;;;;5020506;28;20033;-56
2022/05/10 05:01:07;;;;;;;16.92;1.50;;;;;;;;;;5023281;28;20033;-56
2022/05/10 05:03:33;;;;;;;29.08;2.58;;;;;;;;;;5018857;28;20033;-56
2022/05/10 05:06:02;;;;;;;20.13;1.58;;;;;;;;;;5015141;28;20066;-56
2022/05/10 05:08:28;;;;;;;16.40;1.77;;;;;;;;;;5021043;28;20408;-56
2022/05/10 05:10:57;;;;;;;20.38;2.05;;;;;;;;;;5023810;28;20026;-56
2022/05/10 05:13:24;;;;;;;13.75;1.70;;;;;;;;;;5023621;28;20413;-56
2022/05/10 05:15:50;;;;;;;19.40;1.88;;;;;;;;;;5023509;28;20029;-56
2022/05/10 05:18:15;;;;;;;16.85;2.45;;;;;;;;;;5018067;28;20120;-56
2022/05/10 05:20:42;;;;;;;19.90;2.22;;;;;;;;;;5019259;28;20534;-57
2022/05/10 05:23:09;;;;;;;21.30;1.88;;;;;;;;;;5016048;28;20036;-57
2022/05/10 05:25:36;;;;;;;16.10;1.52;;;;;;;;;;5021899;28;20540;-57
2022/05/10 05:28:02;;;;;;;27.52;2.80;;;;;;;;;;5018522;28;20493;-57
2022/05/10 05:30:28;;;;;;;13.52;2.25;;;;;;;;;;5019986;28;20114;-57
2022/05/10 05:32:53;;;;;;;18.92;2.83;;;;;;;;;;5020653;28;20058;-57
2022/05/10 05:35:19;;;;;;;21.50;2.75;;;;;;;;;;5021070;28;20055;-57
2022/05/10 05:37:44;;;;;;;17.80;1.67;;;;;;;;;;5020098;28;20087;-57
2022/05/10 05:40:15;;;;;;;21.33;2.17;;;;;;;;;;5023546;28;20393;-57
2022/05/10 05:42:41;;;;;;;17.23;1.77;;;;;;;;;;5019458;28;20030;-57
2022/05/10 05:45:09;;;;;;;17.52;2.35;;;;;;;;;;5020360;28;20057;-57
2022/05/10 05:47:34;;;;;;;11.48;2.33;;;;;;;;;;5022284;28;20147;-57
2022/05/10 05:50:00;;;;;;;13.65;1.42;;;;;;;;;;5010844;28;20065;-57
2022/05/10 05:52:26;;;;;;;27.35;3.13;;;;;;;;;;5024526;28;20030;-57
2022/05/10 05:54:53;;;;;;;23.48;2.75;;;;;;;;;;5016343;28;20036;-57
2022/05/10 05:57:20;;;;;;;14.30;1.85;;;;;;;;;;5025355;28;20396;-58
2022/05/10 05:59:46;;;;;;;16.33;2.40;;;;;;;;;;5016911;28;20499;-58
2022/05/10 06:02:17;;;;;;;15.05;2.30;;;;;;;;;;5020310;28;20528;-57
2022/05/10 06:04:43;;;;;;;12.60;2.08;;;;;;;;;;5023357;28;20076;-57
2022/05/10 06:07:13;;;;;;;18.23;2.90;;;;;;;;;;5022135;28;20061;-57
2022/05/10 06:09:40;;;;;;;9.20;1.45;;;;;;;;;;5016770;28;20120;-57
2022/05/10 06:12:07;;;;;;;12.15;1.42;;;;;;;;;;5021355;28;20052;-57
2022/05/10 06:14:34;;;;;;;8.60;1.48;;;;;;;;;;5021003;28;20035;-57
2022/05/10 06:17:00;;;;;;;19.13;2.13;;;;;;;;;;5019305;28;20038;-57
2022/05/10 06:19:27;;;;;;;13.65;1.90;;;;;;;;;;5018998;28;20099;-55
2022/05/10 06:21:55;;;;;;;17.55;2.05;;;;;;;;;;5023837;28;20412;-55
2022/05/10 06:24:20;;;;;;;13.85;2.33;;;;;;;;;;5022756;28;20132;-57
2022/05/10 06:26:46;;;;;;;11.70;1.90;;;;;;;;;;5027663;28;20114;-57
2022/05/10 06:29:11;;;;;;;12.75;1.75;;;;;;;;;;5022934;28;20434;-56
2022/05/10 06:31:41;;;;;;;13.55;2.03;;;;;;;;;;5020179;28;20556;-57
2022/05/10 06:34:06;;;;;;;19.27;2.10;;;;;;;;;;5017581;28;20026;-57
2022/05/10 06:36:32;;;;;;;23.00;2.45;;;;;;;;;;5016160;28;20033;-57
2022/05/10 06:38:57;;;;;;;13.07;1.65;;;;;;;;;;5013949;28;20083;-57
2022/05/10 06:41:24;;;;;;;13.93;1.65;;;;;;;;;;5016023;28;20121;-57
2022/05/10 06:43:49;;;;;;;10.13;1.40;;;;;;;;;;5019575;28;20041;-57
2022/05/10 06:46:19;;;;;;;14.75;1.67;;;;;;;;;;5017450;28;20355;-57
2022/05/10 06:48:45;;;;;;;25.98;2.25;;;;;;;;;;5012827;28;20037;-57
2022/05/10 06:51:13;;;;;;;16.42;2.35;;;;;;;;;;5016898;28;20037;-57
2022/05/10 06:53:39;;;;;;;13.07;1.42;;;;;;;;;;5010505;28;20034;-57
2022/05/10 06:56:06;;;;;;;8.70;1.60;;;;;;;;;;5009439;28;20125;-57
2022/05/10 06:58:32;;;;;;;14.65;1.80;;;;;;;;;;5022841;28;20168;-57
2022/05/10 07:00:57;;;;;;;8.07;1.20;;;;;;;;;;5019808;28;20184;-57
2022/05/10 07:03:28;;;;;;;9.65;1.80;;;;;;;;;;5029868;28;20406;-57
2022/05/10 07:05:55;;;;;;;10.63;1.35;;;;;;;;;;5023909;28;20488;-57
2022/05/10 07:08:21;;;;;;;14.43;2.78;;;;;;;;;;5020648;28;20429;-57
2022/05/10 07:10:47;;;;;;;7.60;1.60;;;;;;;;;;5018952;28;20030;-57
2022/05/10 07:13:18;;;;;;;13.90;1.65;;;;;;;;;;5010323;28;20580;-57
2022/05/10 07:15:44;;;;;;;17.88;2.28;;;;;;;;;;5022241;28;20041;-57
2022/05/10 07:18:10;;;;;;;15.32;2.60;;;;;;;;;;5019668;28;20033;-57
2022/05/10 07:20:36;;;;;;;19.17;2.50;;;;;;;;;;5019272;28;20105;-57
2022/05/10 07:23:01;;;;;;;22.63;1.80;;;;;;;;;;5021349;28;20029;-57
2022/05/10 07:25:28;;;;;;;16.65;1.95;;;;;;;;;;5025232;28;20069;-57
2022/05/10 07:27:55;;;;;;;12.98;1.42;;;;;;;;;;5013620;28;20080;-58
2022/05/10 07:30:22;;;;;;;13.85;2.17;;;;;;;;;;5016741;28;20033;-58
2022/05/10 07:32:48;;;;;;;10.48;1.20;;;;;;;;;;5020666;28;20172;-58
2022/05/10 07:35:14;;;;;;;13.32;1.90;;;;;;;;;;5022368;28;20050;-58
2022/05/10 07:37:39;;;;;;;11.68;1.70;;;;;;;;;;5025792;28;20037;-58
2022/05/10 07:40:08;;;;;;;9.20;1.30;;;;;;;;;;5021203;28;20145;-58
2022/05/10 07:42:36;;;;;;;16.35;1.75;;;;;;;;;;5025120;28;20126;-58
2022/05/10 07:45:03;;;;;;;16.30;2.13;;;;;;;;;;5026457;28;20035;-58
2022/05/10 07:47:29;;;;;;;15.60;2.10;;;;;;;;;;5025331;28;20057;-57
2022/05/10 07:49:54;;;;;;;18.45;1.65;;;;;;;;;;5024497;28;20034;-57
2022/05/10 07:52:20;;;;;;;14.13;1.55;;;;;;;;;;5016617;28;20040;-58
2022/05/10 07:54:45;;;;;;;12.50;1.30;;;;;;;;;;5008151;28;20041;-58
2022/05/10 07:57:11;;;;;;;14.13;1.50;;;;;;;;;;5012048;28;20132;-58
2022/05/10 07:59:37;;;;;;;11.35;1.95;;;;;;;;;;5020091;28;20038;-57
2022/05/10 08:02:04;;;;;;;14.60;1.75;;;;;;;;;;5014217;28;20124;-57
2022/05/10 08:04:29;;;;;;;13.60;1.38;;;;;;;;;;5019510;28;20033;-57
2022/05/10 08:06:55;;;;;;;18.10;1.38;;;;;;;;;;5018328;28;20260;-57
2022/05/10 08:09:21;;;;;;;9.57;1.92;;;;;;;;;;5022306;28;20057;-57
2022/05/10 08:11:46;;;;;;;10.80;1.75;;;;;;;;;;5022209;28;20042;-57
2022/05/10 08:14:13;;;;;;;16.05;1.52;;;;;;;;;;5020957;28;20519;-57
2022/05/10 08:16:38;;;;;;;11.35;1.73;;;;;;;;;;5025686;28;20432;-57
2022/05/10 08:19:04;;;;;;;7.03;1.33;;;;;;;;;;5027104;28;20227;-57
2022/05/10 08:21:29;;;;;;;6.68;0.88;;;;;;;;;;5020635;28;20100;-57
2022/05/10 08:23:55;;;;;;;5.43;1.30;;;;;;;;;;5021376;28;20079;-57
2022/05/10 08:26:22;;;;;;;12.23;1.45;;;;;;;;;;5026256;28;20385;-57
2022/05/10 08:28:48;;;;;;;10.45;1.13;;;;;;;;;;5027561;28;20037;-57
2022/05/10 08:31:14;;;;;;;8.13;1.40;;;;;;;;;;5019394;28;20033;-57
2022/05/10 08:33:42;;;;;;;15.20;1.77;;;;;;;;;;5018402;28;20132;-57
2022/05/10 08:36:08;;;;;;;7.65;1.67;;;;;;;;;;5018480;28;20098;-57
2022/05/10 08:38:34;;;;;;;12.70;2.13;;;;;;;;;;5024895;28;20052;-57
2022/05/10 08:41:05;;;;;;;10.43;1.48;;;;;;;;;;5021028;28;20145;-58
2022/05/10 08:43:48;;;;;;;8.38;1.50;;;;;;;;;;5021520;28;20494;-58
2022/05/10 08:46:16;;;;;;;10.68;1.42;;;;;;;;;;5018610;28;20046;-58
2022/05/10 08:48:45;;;;;;;17.35;2.03;;;;;;;;;;5024970;28;20164;-56
2022/05/10 08:51:12;;;;;;;14.32;2.72;;;;;;;;;;5023268;28;20056;-57
2022/05/10 08:53:38;;;;;;;11.90;1.58;;;;;;;;;;5027839;28;20048;-57
2022/05/10 08:56:23;;;;;;;15.35;1.52;;;;;;;;;;5022801;28;21085;-57
2022/05/10 08:58:48;;;;;;;9.07;1.60;;;;;;;;;;5015497;28;20031;-57
2022/05/10 09:01:21;;;;;;;9.70;0.95;;;;;;;;;;5013618;28;20028;-57
2022/05/10 09:04:19;;;;;;;12.52;2.00;;;;;;;;;;5019300;28;20025;-56
2022/05/10 09:07:23;;;;;;;15.50;1.48;;;;;;;;;;5016224;28;20057;-57
2022/05/10 09:10:04;;;;;;;9.65;2.15;;;;;;;;;;5013000;28;20029;-57
2022/05/10 09:12:42;;;;;;;7.05;1.50;;;;;;;;;;5016140;28;20515;-57
2022/05/10 09:15:10;;;;;;;7.45;1.45;;;;;;;;;;5018428;28;20049;-57
2022/05/10 09:17:36;;;;;;;10.18;2.25;;;;;;;;;;5025767;28;20017;-57
2022/05/10 09:20:04;;;;;;;12.50;1.40;;;;;;;;;;5013899;28;20030;-57
2022/05/10 09:22:42;;;;;;;12.88;2.30;;;;;;;;;;5022574;28;20444;-57
2022/05/10 09:25:26;;;;;;;9.65;1.75;;;;;;;;;;5016043;28;20406;-57
2022/05/10 09:27:54;;;;;;;12.88;1.38;;;;;;;;;;5028048;28;20033;-57
2022/05/10 09:30:33;;;;;;;8.40;1.10;;;;;;;;;;5023556;28;20482;-57
2022/05/10 09:36:28;;;;;;;4.50;1.25;;;;;;;;;;5018872;28;20357;-57
2022/05/10 09:39:01;;;;;;;8.90;1.73;;;;;;;;;;5024273;28;20388;-57
2022/05/10 09:41:41;;;;;;;6.15;1.30;;;;;;;;;;5025695;28;20051;-57
2022/05/10 09:44:22;;;;;;;8.48;1.58;;;;;;;;;;5023175;28;20030;-57
2022/05/10 09:46:49;;;;;;;8.88;1.23;;;;;;;;;;5017519;28;20095;-57
2022/05/10 09:49:43;;;;;;;9.82;1.52;;;;;;;;;;5022512;28;20042;-57
2022/05/10 09:52:23;;;;;;;9.13;1.05;;;;;;;;;;5018279;28;20049;-57
2022/05/10 09:54:52;;;;;;;12.40;2.15;;;;;;;;;;5019337;28;20029;-57
2022/05/10 09:57:46;;;;;;;6.80;1.33;;;;;;;;;;5026776;28;20535;-57
2022/05/10 10:00:15;;;;;;;10.90;1.40;;;;;;;;;;5012000;28;20053;-57
2022/05/10 10:02:42;;;;;;;8.77;1.70;;;;;;;;;;5019011;28;20041;-56
2022/05/10 10:05:21;;;;;;;12.05;1.20;;;;;;;;;;5016809;28;20025;-57
2022/05/10 10:07:52;;;;;;;10.50;1.45;;;;;;;;;;5015204;28;20021;-57
2022/05/10 10:10:24;;;;;;;10.15;1.13;;;;;;;;;;5020802;28;20017;-57
2022/05/10 10:12:50;;;;;;;13.35;1.35;;;;;;;;;;5027526;28;20116;-57
2022/05/10 10:15:36;;;;;;;8.93;1.13;;;;;;;;;;5020586;28;20125;-57
2022/05/10 10:18:11;;;;;;;8.38;1.35;;;;;;;;;;5017603;28;20083;-57
2022/05/10 10:20:56;;;;;;;4.07;1.27;;;;;;;;;;5011915;28;20041;-57
2022/05/10 10:23:32;;;;;;;8.02;0.90;;;;;;;;;;5019264;28;20033;-58
2022/05/10 10:26:19;;;;;;;12.32;1.50;;;;;;;;;;5029970;28;20475;-58
2022/05/10 10:29:17;;;;;;;12.23;1.23;;;;;;;;;;5005205;28;20040;-57
2022/05/10 10:32:20;;;;;;;7.28;1.23;;;;;;;;;;5015265;28;20038;-57
2022/05/10 10:34:49;;;;;;;10.63;1.67;;;;;;;;;;5024503;28;20887;-57
2022/05/10 10:37:23;;;;;;;15.25;1.17;;;;;;;;;;5020540;28;20041;-59
2022/05/10 10:40:27;;;;;;;10.30;1.10;;;;;;;;;;5021999;28;20022;-58
2022/05/10 10:43:17;;;;;;;7.82;1.13;;;;;;;;;;5025633;28;20394;-57
2022/05/10 10:45:48;;;;;;;8.77;1.73;;;;;;;;;;5022217;28;20032;-58
2022/05/10 10:48:28;;;;;;;12.35;1.15;;;;;;;;;;5024520;28;20411;-57
2022/05/10 10:50:55;;;;;;;9.18;1.20;;;;;;;;;;5020156;28;20732;-57
2022/05/10 10:53:24;;;;;;;7.50;1.70;;;;;;;;;;5019149;28;20083;-58
2022/05/10 10:56:29;;;;;;;8.23;1.33;;;;;;;;;;5019568;28;20108;-57
2022/05/10 10:59:16;;;;;;;8.65;1.00;;;;;;;;;;5019192;28;20058;-58
2022/05/10 11:02:19;;;;;;;5.13;1.10;;;;;;;;;;5021863;28;20028;-58
2022/05/10 11:05:20;;;;;;;15.55;1.73;;;;;;;;;;5019283;28;20449;-56
2022/05/10 11:08:13;;;;;;;13.05;1.58;;;;;;;;;;5019279;28;20050;-58
2022/05/10 11:10:46;;;;;;;6.38;0.70;;;;;;;;;;5031203;28;20449;-57
2022/05/10 11:13:27;;;;;;;6.00;1.35;;;;;;;;;;5020628;28;20071;-57
2022/05/10 11:16:07;;;;;;;7.30;1.75;;;;;;;;;;5014452;28;20025;-59
2022/05/10 11:19:15;;;;;;;8.43;1.27;;;;;;;;;;5021576;28;20509;-57
2022/05/10 11:21:43;;;;;;;10.40;1.05;;;;;;;;;;5015953;28;20041;-57
2022/05/10 11:24:36;;;;;;;6.25;1.25;;;;;;;;;;5026306;28;20060;-57
2022/05/10 11:27:21;;;;;;;7.95;1.13;;;;;;;;;;5023567;28;20037;-57
2022/05/10 11:29:46;;;;;;;7.85;1.63;;;;;;;;;;5027171;28;20193;-57
2022/05/10 11:32:21;;;;;;;10.07;1.00;;;;;;;;;;5026534;28;20583;-58
2022/05/10 11:34:49;;;;;;;11.73;1.70;;;;;;;;;;5023318;28;20045;-58
2022/05/10 11:37:23;;;;;;;9.63;1.10;;;;;;;;;;5026476;28;20040;-58
2022/05/10 11:40:25;;;;;;;9.93;1.30;;;;;;;;;;5026329;28;20111;-57
2022/05/10 11:43:15;;;;;;;7.60;0.98;;;;;;;;;;5029187;28;20119;-57
2022/05/10 11:46:03;;;;;;;3.70;0.70;;;;;;;;;;5012965;28;20018;-57
2022/05/10 11:48:35;;;;;;;5.50;1.30;;;;;;;;;;5022439;28;20393;-58
2022/05/10 11:51:43;;;;;;;9.32;1.13;;;;;;;;;;5016233;28;20068;-58
2022/05/10 11:54:46;;;;;;;7.50;1.33;;;;;;;;;;5023687;28;20346;-58
2022/05/10 11:57:16;;;;;;;6.47;1.35;;;;;;;;;;5020431;28;20021;-58
2022/05/10 11:59:43;;;;;;;9.25;1.55;;;;;;;;;;5026905;28;20021;-58
2022/05/10 12:02:30;;;;;;;15.77;1.27;;;;;;;;;;5024441;28;20045;-58
2022/05/10 12:05:14;;;;;;;20.02;1.67;;;;;;;;;;5023624;28;20034;-58
2022/05/10 12:07:50;;;;;;;12.40;1.30;;;;;;;;;;5023701;28;20033;-58
2022/05/10 12:10:22;;;;;;;13.43;1.58;;;;;;;;;;5025236;28;20497;-58
2022/05/10 12:12:47;;;;;;;8.07;1.45;;;;;;;;;;5027499;28;20087;-59
2022/05/10 12:21:23;;;;;;;7.18;1.20;;;;;;;;;;5018610;28;20087;-58
2022/05/10 12:24:17;;;;;;;13.23;1.40;;;;;;;;;;5023142;28;20037;-58
2022/05/10 12:26:53;;;;;;;6.38;1.08;;;;;;;;;;5019754;28;20270;-58
2022/05/10 12:29:40;;;;;;;7.25;1.05;;;;;;;;;;5017662;28;20033;-58
2022/05/10 12:32:08;;;;;;;9.18;1.25;;;;;;;;;;5026886;28;20037;-57
2022/05/10 12:34:58;;;;;;;7.88;1.10;;;;;;;;;;5026904;28;20059;-58
2022/05/10 12:37:30;;;;;;;3.47;0.80;;;;;;;;;;5017786;28;20033;-59
2022/05/10 12:39:57;;;;;;;5.47;0.88;;;;;;;;;;5023995;28;20194;-58
2022/05/10 12:42:49;;;;;;;8.93;1.40;;;;;;;;;;5026076;28;20099;-57
2022/05/10 12:45:52;;;;;;;6.07;1.08;;;;;;;;;;5019885;28;20201;-58
2022/05/10 12:48:31;;;;;;;6.35;1.08;;;;;;;;;;5020699;28;20137;-58
2022/05/10 12:51:34;;;;;;;10.63;2.05;;;;;;;;;;5017530;28;20041;-59
2022/05/10 12:54:08;;;;;;;10.75;1.27;;;;;;;;;;5019130;28;20017;-59
2022/05/10 12:56:42;;;;;;;9.13;1.10;;;;;;;;;;5017750;28;20037;-59
2022/05/10 12:59:17;;;;;;;4.00;0.93;;;;;;;;;;5030560;28;20698;-59
2022/05/10 13:01:43;;;;;;;8.38;0.82;;;;;;;;;;5028056;28;20025;-58
2022/05/10 13:04:15;;;;;;;12.25;1.77;;;;;;;;;;5027110;28;20039;-59
2022/05/10 13:06:44;;;;;;;;;;;;;;;;;;5020350;28;20731;-59
2022/05/10 13:09:24;;;;;;;8.20;1.13;;;;;;;;;;5026032;28;20417;-59
2022/05/10 13:12:10;;;;;;;6.45;1.25;;;;;;;;;;5024123;28;20045;-58
2022/05/10 13:14:40;;;;;;;5.47;0.88;;;;;;;;;;5016290;28;20052;-58
2022/05/10 13:17:07;;;;;;;7.85;0.82;;;;;;;;;;5023240;28;20611;-58
2022/05/10 13:19:39;;;;;;;5.72;1.05;;;;;;;;;;5017160;28;20029;-58
2022/05/10 13:22:12;;;;;;;6.82;0.70;;;;;;;;;;5015094;28;20036;-58
2022/05/10 13:24:38;;;;;;;7.80;0.88;;;;;;;;;;5020875;28;20099;-59
2022/05/10 13:27:05;;;;;;;8.07;1.30;;;;;;;;;;5018056;28;20459;-59
2022/05/10 13:30:16;;;;;;;4.40;1.02;;;;;;;;;;5017870;28;20017;-59
2022/05/10 13:32:45;;;;;;;11.93;1.50;;;;;;;;;;5016117;28;20040;-59
2022/05/10 13:35:20;;;;;;;8.20;1.08;;;;;;;;;;5020597;28;20159;-58
2022/05/10 13:37:58;;;;;;;8.10;1.08;;;;;;;;;;5018610;28;20033;-58
2022/05/10 13:40:27;;;;;;;8.30;1.23;;;;;;;;;;5024991;28;20029;-57
2022/05/10 13:42:52;;;;;;;8.70;1.33;;;;;;;;;;5023748;28;20033;-57
2022/05/10 13:45:28;;;;;;;7.60;1.13;;;;;;;;;;5027814;28;20030;-57
2022/05/10 13:48:12;;;;;;;8.18;0.90;;;;;;;;;;5024252;28;20768;-56
2022/05/10 13:50:40;;;;;;;8.60;1.50;;;;;;;;;;5017267;28;20022;-57
2022/05/10 13:53:08;;;;;;;9.70;1.85;;;;;;;;;;5014106;28;20052;-57
2022/05/10 13:55:41;;;;;;;6.35;0.63;;;;;;;;;;5012023;28;20531;-56
2022/05/10 13:58:08;;;;;;;4.90;0.80;;;;;;;;;;5016792;28;20029;-56
2022/05/10 14:00:42;;;;;;;7.13;1.05;;;;;;;;;;5012909;28;20412;-56
2022/05/10 14:03:15;;;;;;;7.45;1.20;;;;;;;;;;5015321;28;20030;-58
2022/05/10 14:05:45;;;;;;;5.25;1.00;;;;;;;;;;5020302;28;20049;-57
2022/05/10 14:08:24;;;;;;;6.45;0.85;;;;;;;;;;5017460;28;20488;-57
2022/05/10 14:11:19;;;;;;;4.95;1.20;;;;;;;;;;5026488;28;20436;-56
2022/05/10 14:13:55;;;;;;;8.25;0.90;;;;;;;;;;5024046;28;20180;-57
2022/05/10 14:16:35;;;;;;;10.25;1.20;;;;;;;;;;5023132;28;20033;-57
2022/05/10 14:19:07;;;;;;;6.53;1.13;;;;;;;;;;5021266;28;20035;-56
2022/05/10 14:21:35;;;;;;;8.07;1.00;;;;;;;;;;5015364;28;20033;-57
2022/05/10 14:24:01;;;;;;;4.28;1.20;;;;;;;;;;5017407;28;21259;-57
2022/05/10 14:26:40;;;;;;;11.93;1.27;;;;;;;;;;5012672;28;20068;-57
2022/05/10 14:29:38;;;;;;;5.45;1.13;;;;;;;;;;5018804;28;20037;-57
2022/05/10 14:32:07;;;;;;;11.02;1.65;;;;;;;;;;5012019;28;20048;-57
2022/05/10 14:34:54;;;;;;;6.70;1.35;;;;;;;;;;5018539;28;20025;-58
2022/05/10 14:37:21;;;;;;;10.32;1.10;;;;;;;;;;5018668;28;20132;-57
2022/05/10 14:39:48;;;;;;;6.05;0.88;;;;;;;;;;5019807;28;20035;-57
2022/05/10 14:42:32;;;;;;;7.38;1.10;;;;;;;;;;5015981;28;20047;-57
2022/05/10 14:45:15;;;;;;;8.23;1.42;;;;;;;;;;5020266;28;20057;-58
2022/05/10 14:47:41;;;;;;;7.30;1.40;;;;;;;;;;5013891;28;20108;-58
2022/05/10 14:50:36;;;;;;;5.63;1.27;;;;;;;;;;5018905;28;20480;-58
2022/05/10 14:53:20;;;;;;;8.40;1.10;;;;;;;;;;5013246;28;20037;-58
2022/05/10 14:55:52;;;;;;;3.15;0.68;;;;;;;;;;5016758;28;20034;-57
2022/05/10 14:58:30;;;;;;;8.15;0.93;;;;;;;;;;5020443;28;20488;-58
2022/05/10 15:01:00;;;;;;;6.35;1.23;;;;;;;;;;5022218;28;20104;-57
2022/05/10 15:03:26;;;;;;;5.88;1.20;;;;;;;;;;5022938;28;20069;-57
2022/05/10 15:05:52;;;;;;;9.77;1.17;;;;;;;;;;5027930;28;20383;-58
2022/05/10 15:08:19;;;;;;;2.28;0.80;;;;;;;;;;5021177;28;20033;-58
2022/05/10 15:10:53;;;;;;;6.32;0.95;;;;;;;;;;5027035;28;20420;-57
2022/05/10 15:13:19;;;;;;;2.80;0.82;;;;;;;;;;5025899;28;20468;-57
2022/05/10 15:15:56;;;;;;;5.00;0.75;;;;;;;;;;5026050;28;20097;-57
2022/05/10 15:21:19;;;;;;;4.43;1.17;;;;;;;;;;5020423;28;20087;-58
2022/05/10 15:23:44;;;;;;;3.83;1.10;;;;;;;;;;5030296;28;20028;-59
2022/05/10 15:26:36;;;;;;;5.07;1.15;;;;;;;;;;5026566;28;20037;-57
2022/05/10 15:29:01;;;;;;;8.40;2.00;;;;;;;;;;5020181;28;20253;-57